Alta, Indiana
Current Conditions -  °F | °C
As of 12:35 AM on Thursday 27 Nov 2014 (Local Time) from KPRG Reporting Station
Overcast Overcast  
Wind Chill: 23°   Ceiling: 8000
Heat Index: 29°   Visibility: 10mi
Dew Point: 26°   Wind: 6mph
Humidity: 86%   Direction: 360°N
Pressure: 30.17"   Gusts: NA
Location:  39.7643°N, 87.4119°W
Report Text: KPRG 270535Z AUTO 36005KT 10SM SCT070 BKN080 OVC095 M02/M04 A3017 RMK AO2 T10161036
Loading
Personal Weather Stations






























Interactive Weather Map New forecast layout! Learn more

10-Day Weather Forecast

Advertisements
Track Severe Weather on mobile